createdAt,value
2019-05-19T00:02:12.935Z,15.12
2019-05-19T00:04:43.727Z,15.17
2019-05-19T00:07:14.561Z,15.18
2019-05-19T00:09:45.445Z,15.21
2019-05-19T00:12:16.263Z,15.28
2019-05-19T00:14:47.122Z,15.35
2019-05-19T00:17:17.913Z,15.44
2019-05-19T00:19:48.795Z,15.51
2019-05-19T00:22:19.774Z,15.57
2019-05-19T00:24:50.570Z,15.66
2019-05-19T00:27:21.386Z,15.63
2019-05-19T00:29:52.293Z,15.62
2019-05-19T00:32:23.211Z,15.49
2019-05-19T00:34:54.096Z,15.35
2019-05-19T00:37:24.949Z,15.26
2019-05-19T00:39:55.773Z,15.36
2019-05-19T00:42:26.598Z,15.48
2019-05-19T00:44:57.373Z,15.55
2019-05-19T00:47:28.250Z,15.54
2019-05-19T00:49:59.084Z,15.44
2019-05-19T00:52:30.017Z,15.37
2019-05-19T00:55:00.904Z,15.38
2019-05-19T00:57:32.422Z,15.24
2019-05-19T01:00:03.650Z,15.16
2019-05-19T01:02:34.359Z,15.30
2019-05-19T01:05:07.629Z,15.34
2019-05-19T01:07:38.464Z,15.43
2019-05-19T01:10:10.855Z,15.52
2019-05-19T01:12:41.689Z,15.61
2019-05-19T01:15:12.745Z,15.63
2019-05-19T01:17:43.634Z,15.58
2019-05-19T01:20:16.055Z,15.47
2019-05-19T01:22:46.795Z,15.30
2019-05-19T01:25:18.860Z,15.17
2019-05-19T01:27:49.755Z,15.01
2019-05-19T01:30:20.902Z,14.76
2019-05-19T01:32:51.721Z,14.68
2019-05-19T01:35:22.654Z,14.62
2019-05-19T01:37:53.526Z,14.73
2019-05-19T01:40:24.441Z,14.83
2019-05-19T01:42:55.253Z,14.73
2019-05-19T01:45:26.795Z,14.66
2019-05-19T01:47:57.633Z,14.63
2019-05-19T01:50:28.777Z,14.66
2019-05-19T01:52:59.991Z,14.62
2019-05-19T01:55:30.721Z,14.57
2019-05-19T01:58:01.358Z,14.49
2019-05-19T02:00:32.092Z,14.32
2019-05-19T02:03:02.951Z,14.27
2019-05-19T02:05:33.771Z,14.26
2019-05-19T02:08:04.595Z,14.17
2019-05-19T02:10:35.176Z,14.28
2019-05-19T02:13:05.794Z,14.43
2019-05-19T02:15:36.597Z,14.43
2019-05-19T02:18:07.412Z,14.40
2019-05-19T02:20:38.054Z,14.27
2019-05-19T02:23:08.922Z,14.06
2019-05-19T02:25:39.516Z,13.87
2019-05-19T02:28:10.196Z,13.65
2019-05-19T02:30:40.816Z,13.64
2019-05-19T02:33:11.508Z,13.53
2019-05-19T02:35:42.214Z,13.75
2019-05-19T02:38:12.752Z,13.91
2019-05-19T02:40:48.923Z,14.03
2019-05-19T02:43:21.408Z,14.19
2019-05-19T02:45:56.330Z,14.18
2019-05-19T02:48:29.069Z,14.14
2019-05-19T02:51:01.793Z,14.04
2019-05-19T02:53:33.319Z,13.99
2019-05-19T02:56:04.854Z,13.89
2019-05-19T02:58:35.959Z,13.91
2019-05-19T03:01:06.648Z,13.74
2019-05-19T03:03:37.257Z,13.56
2019-05-19T03:06:07.944Z,13.49
2019-05-19T03:08:38.638Z,13.57
2019-05-19T03:11:09.373Z,13.51
2019-05-19T03:13:40.094Z,13.68
2019-05-19T03:16:10.784Z,13.78
2019-05-19T03:18:41.396Z,13.69
2019-05-19T03:21:12.311Z,13.61
2019-05-19T03:23:42.971Z,13.52
2019-05-19T03:26:13.630Z,13.48
2019-05-19T03:28:44.369Z,13.51
2019-05-19T03:31:33.829Z,13.43
2019-05-19T03:34:04.619Z,13.32
2019-05-19T03:36:35.128Z,13.09
2019-05-19T03:39:07.426Z,12.84
2019-05-19T03:41:37.927Z,12.76
2019-05-19T03:44:08.805Z,12.69
2019-05-19T03:46:39.497Z,12.78
2019-05-19T03:49:10.179Z,12.91
2019-05-19T03:51:40.777Z,12.97
2019-05-19T03:54:11.525Z,13.10
2019-05-19T03:56:42.202Z,13.28
2019-05-19T03:59:12.888Z,13.40
2019-05-19T04:01:43.544Z,13.61
2019-05-19T04:04:14.136Z,13.83
2019-05-19T04:06:44.683Z,14.04
2019-05-19T04:09:17.478Z,14.14
2019-05-19T04:11:47.489Z,14.28
2019-05-19T04:14:18.120Z,14.32
2019-05-19T04:16:51.584Z,14.42
2019-05-19T04:19:22.238Z,14.55
2019-05-19T04:21:53.004Z,14.70
2019-05-19T04:24:23.643Z,14.87
2019-05-19T04:26:54.302Z,15.12
2019-05-19T04:29:24.909Z,15.42
2019-05-19T04:31:55.677Z,15.79
2019-05-19T04:34:26.188Z,16.42
2019-05-19T04:36:57.935Z,17.44
2019-05-19T04:39:28.554Z,18.45
2019-05-19T04:41:59.099Z,19.62
2019-05-19T04:44:29.723Z,20.55
2019-05-19T04:47:00.360Z,21.65
2019-05-19T04:49:31.087Z,22.57
2019-05-19T04:52:06.552Z,22.35
2019-05-19T04:54:34.035Z,23.18
2019-05-19T04:57:04.703Z,24.12
2019-05-19T04:59:35.289Z,24.67
2019-05-19T05:02:06.126Z,25.48
2019-05-19T05:04:36.624Z,25.38
2019-05-19T05:07:07.264Z,25.94
2019-05-19T05:09:37.893Z,26.57
2019-05-19T05:12:08.620Z,26.71
2019-05-19T05:14:39.334Z,26.70
2019-05-19T05:17:10.107Z,26.06
2019-05-19T05:19:40.639Z,26.43
2019-05-19T05:22:21.691Z,25.65
2019-05-19T05:24:43.482Z,25.91
2019-05-19T05:27:14.216Z,26.23
2019-05-19T05:29:44.947Z,26.20
2019-05-19T05:32:15.619Z,27.29
2019-05-19T05:34:46.348Z,26.77
2019-05-19T05:37:17.112Z,26.98
2019-05-19T05:39:47.842Z,27.28
2019-05-19T05:42:18.649Z,26.95
2019-05-19T05:44:49.287Z,27.20
2019-05-19T05:47:19.967Z,26.42
2019-05-19T05:49:50.577Z,25.11
2019-05-19T05:52:21.257Z,26.98
2019-05-19T05:54:52.293Z,26.31
2019-05-19T05:57:23.057Z,27.47
2019-05-19T05:59:53.706Z,28.61
2019-05-19T06:02:24.416Z,28.15
2019-05-19T06:04:55.143Z,29.09
2019-05-19T06:07:25.792Z,28.94
2019-05-19T06:09:56.462Z,29.28
2019-05-19T06:12:27.112Z,29.37
2019-05-19T06:14:57.832Z,30.61
2019-05-19T06:17:28.471Z,30.63
2019-05-19T06:19:59.093Z,30.05
2019-05-19T06:22:30.057Z,29.92
2019-05-19T06:25:00.669Z,30.90
2019-05-19T06:27:31.460Z,30.82
2019-05-19T06:30:02.179Z,30.92
2019-05-19T06:32:38.619Z,30.24
2019-05-19T06:35:09.854Z,28.67
2019-05-19T06:37:40.663Z,30.39
2019-05-19T06:40:14.445Z,29.59
2019-05-19T06:42:45.022Z,30.35
2019-05-19T06:45:16.076Z,29.24
2019-05-19T06:47:46.741Z,30.03
2019-05-19T06:50:20.127Z,29.77
2019-05-19T06:52:50.891Z,30.28
2019-05-19T06:55:21.565Z,32.24
2019-05-19T06:57:52.407Z,32.17
2019-05-19T07:00:23.191Z,32.05
2019-05-19T07:02:53.918Z,32.76
2019-05-19T07:05:24.697Z,32.35
2019-05-19T07:07:55.370Z,33.07
2019-05-19T07:10:26.147Z,33.68
2019-05-19T07:12:56.822Z,31.88
2019-05-19T07:15:27.533Z,32.15
2019-05-19T07:17:58.237Z,32.00
2019-05-19T07:20:28.881Z,32.27
2019-05-19T07:22:59.627Z,34.60
2019-05-19T07:25:30.440Z,34.96
2019-05-19T07:28:01.079Z,32.59
2019-05-19T07:30:31.787Z,33.67
2019-05-19T07:33:02.438Z,33.13
2019-05-19T07:35:33.056Z,33.86
2019-05-19T07:38:03.546Z,32.62
2019-05-19T07:40:34.281Z,32.74
2019-05-19T07:43:05.087Z,34.31
2019-05-19T07:45:35.782Z,32.50
2019-05-19T07:48:06.438Z,33.40
2019-05-19T07:50:38.243Z,33.37
2019-05-19T07:53:09.164Z,32.91
2019-05-19T07:55:39.797Z,30.34
2019-05-19T07:58:10.777Z,31.54
2019-05-19T08:00:41.443Z,32.20
2019-05-19T08:03:12.207Z,32.72
2019-05-19T08:05:42.923Z,32.87
2019-05-19T08:08:13.565Z,32.29
2019-05-19T08:10:44.802Z,31.54
2019-05-19T08:13:15.473Z,29.94
2019-05-19T08:15:46.207Z,31.86
2019-05-19T08:18:16.852Z,33.62
2019-05-19T08:20:47.662Z,34.70
2019-05-19T08:23:18.418Z,34.57
2019-05-19T08:25:49.280Z,33.92
2019-05-19T08:28:20.079Z,34.23
2019-05-19T08:30:50.853Z,34.93
2019-05-19T08:33:21.526Z,35.33
2019-05-19T08:35:52.273Z,35.51
2019-05-19T08:38:23.003Z,34.12
2019-05-19T08:40:53.688Z,34.19
2019-05-19T08:43:24.561Z,34.31
2019-05-19T08:45:55.244Z,33.52
2019-05-19T08:48:25.973Z,32.67
2019-05-19T08:50:56.606Z,32.54
2019-05-19T08:53:27.300Z,32.30
2019-05-19T08:55:58.040Z,33.05
2019-05-19T08:58:28.762Z,32.66
2019-05-19T09:00:59.300Z,32.53
2019-05-19T09:03:29.960Z,33.96
2019-05-19T09:06:00.593Z,30.81
2019-05-19T09:08:31.401Z,30.97
2019-05-19T09:11:02.110Z,32.08
2019-05-19T09:13:32.734Z,32.04
2019-05-19T09:16:03.326Z,31.58
2019-05-19T09:18:33.897Z,31.87
2019-05-19T09:21:04.597Z,32.88
2019-05-19T09:23:35.258Z,33.65
2019-05-19T09:26:05.974Z,32.40
2019-05-19T09:28:36.577Z,34.17
2019-05-19T09:31:07.241Z,33.27
2019-05-19T09:33:38.057Z,34.13
2019-05-19T09:36:09.871Z,31.69
2019-05-19T09:38:40.616Z,33.02
2019-05-19T09:41:15.430Z,34.07
2019-05-19T09:43:46.226Z,34.83
2019-05-19T09:46:16.877Z,33.38
2019-05-19T09:48:49.677Z,33.02
2019-05-19T09:51:20.445Z,33.31
2019-05-19T09:53:51.092Z,32.58
2019-05-19T09:56:21.831Z,32.75
2019-05-19T09:58:52.536Z,32.13
2019-05-19T10:01:23.366Z,31.47
2019-05-19T10:03:54.075Z,31.82
2019-05-19T10:06:24.830Z,31.24
2019-05-19T10:08:58.606Z,31.00
2019-05-19T10:12:04.860Z,30.40
2019-05-19T10:14:35.666Z,29.25
2019-05-19T10:17:06.253Z,28.22
2019-05-19T10:19:36.891Z,27.13
2019-05-19T10:22:07.537Z,27.05
2019-05-19T10:24:38.106Z,26.94
2019-05-19T10:27:08.732Z,27.01
2019-05-19T10:29:39.303Z,26.62
2019-05-19T10:32:10.056Z,27.03
2019-05-19T10:34:40.761Z,26.84
2019-05-19T10:37:11.633Z,26.37
2019-05-19T10:39:42.474Z,26.53
2019-05-19T10:42:13.577Z,25.89
2019-05-19T10:44:44.332Z,26.18
2019-05-19T10:47:14.894Z,26.09
2019-05-19T10:49:45.646Z,24.88
2019-05-19T10:52:16.383Z,24.83
2019-05-19T10:54:47.149Z,25.38
2019-05-19T10:57:17.784Z,25.97
2019-05-19T10:59:48.888Z,25.69
2019-05-19T11:02:19.626Z,24.92
2019-05-19T11:04:50.377Z,25.29
2019-05-19T11:07:21.074Z,25.72
2019-05-19T11:09:51.808Z,26.06
2019-05-19T11:12:23.592Z,26.41
2019-05-19T11:14:54.245Z,26.08
2019-05-19T11:17:24.882Z,25.52
2019-05-19T11:19:55.477Z,25.57
2019-05-19T11:22:26.281Z,25.51
2019-05-19T11:24:57.007Z,25.87
2019-05-19T11:27:27.780Z,26.21
2019-05-19T11:29:58.474Z,26.07
2019-05-19T11:32:29.174Z,25.31
2019-05-19T11:35:00.014Z,25.59
2019-05-19T11:37:31.660Z,25.30
2019-05-19T11:40:02.526Z,25.81
2019-05-19T11:42:33.147Z,25.46
2019-05-19T11:45:04.414Z,25.28
2019-05-19T11:47:35.048Z,24.96
2019-05-19T11:50:05.893Z,24.32
2019-05-19T11:52:36.642Z,24.18
2019-05-19T11:55:07.524Z,24.72
2019-05-19T11:57:38.045Z,25.14
2019-05-19T12:00:10.492Z,25.23
2019-05-19T12:02:44.682Z,24.57
2019-05-19T12:05:15.886Z,24.92
2019-05-19T12:07:46.613Z,24.45
2019-05-19T12:10:17.429Z,24.51
2019-05-19T12:12:48.182Z,24.79
2019-05-19T12:15:20.431Z,25.25
2019-05-19T12:17:51.087Z,25.69
2019-05-19T12:20:21.787Z,25.74
2019-05-19T12:22:52.545Z,25.74
2019-05-19T12:25:23.484Z,25.90
2019-05-19T12:27:54.032Z,25.83
2019-05-19T12:30:24.739Z,25.45
2019-05-19T12:32:58.794Z,25.49
2019-05-19T12:35:27.835Z,25.63
2019-05-19T12:37:58.643Z,25.90
2019-05-19T12:40:32.656Z,26.12
2019-05-19T12:43:03.443Z,26.02
2019-05-19T12:45:34.135Z,25.83
2019-05-19T12:48:05.030Z,25.98
2019-05-19T12:50:35.713Z,26.07
2019-05-19T12:53:06.385Z,26.17
2019-05-19T12:55:37.024Z,26.37
2019-05-19T12:58:07.781Z,25.48
2019-05-19T13:00:38.414Z,25.53
2019-05-19T13:03:09.040Z,25.74
2019-05-19T13:05:39.793Z,26.09
2019-05-19T13:08:11.602Z,26.08
2019-05-19T13:10:42.456Z,26.32
2019-05-19T13:13:13.169Z,26.26
2019-05-19T13:15:43.888Z,26.24
2019-05-19T13:18:14.677Z,26.18
2019-05-19T13:20:45.514Z,26.05
2019-05-19T13:23:16.184Z,25.96
2019-05-19T13:25:46.942Z,25.82
2019-05-19T13:28:17.534Z,25.73
2019-05-19T13:30:48.211Z,25.72
2019-05-19T13:33:18.907Z,26.03
2019-05-19T13:35:49.618Z,26.33
2019-05-19T13:38:20.396Z,26.43
2019-05-19T13:40:50.986Z,27.01
2019-05-19T13:43:25.802Z,26.77
2019-05-19T13:45:54.382Z,27.13
2019-05-19T13:48:25.128Z,26.90
2019-05-19T13:50:55.925Z,26.53
2019-05-19T13:53:27.670Z,26.40
2019-05-19T13:55:58.327Z,26.71
2019-05-19T13:58:29.137Z,26.62
2019-05-19T14:00:59.794Z,26.65
2019-05-19T14:03:30.462Z,26.04
2019-05-19T14:06:01.173Z,25.77
2019-05-19T14:08:31.907Z,25.71
2019-05-19T14:11:02.567Z,25.67
2019-05-19T14:13:33.352Z,24.73
2019-05-19T14:16:03.918Z,24.21
2019-05-19T14:18:34.487Z,23.85
2019-05-19T14:21:05.327Z,23.47
2019-05-19T14:23:36.237Z,23.10
2019-05-19T14:26:07.087Z,23.06
2019-05-19T14:28:37.805Z,23.31
2019-05-19T14:31:11.689Z,23.51
2019-05-19T14:33:42.423Z,23.52
2019-05-19T14:36:13.183Z,23.69
2019-05-19T14:39:05.094Z,23.79
2019-05-19T14:41:41.848Z,23.83
2019-05-19T14:44:12.581Z,23.93
2019-05-19T14:46:43.316Z,24.04
2019-05-19T14:49:13.999Z,23.91
2019-05-19T14:51:44.858Z,24.08
2019-05-19T14:54:15.586Z,24.30
2019-05-19T14:56:47.944Z,24.27
2019-05-19T14:59:19.986Z,24.43
2019-05-19T15:01:50.631Z,24.35
2019-05-19T15:04:21.268Z,24.41
2019-05-19T15:06:51.994Z,24.57
2019-05-19T15:09:23.945Z,24.61
2019-05-19T15:11:54.716Z,24.74
2019-05-19T15:14:25.516Z,24.64
2019-05-19T15:16:56.216Z,24.69
2019-05-19T15:19:27.176Z,24.73
2019-05-19T15:21:57.997Z,24.61
2019-05-19T15:24:30.826Z,24.54
2019-05-19T15:27:01.675Z,24.54
2019-05-19T15:29:32.452Z,24.38
2019-05-19T15:32:03.301Z,24.36
2019-05-19T15:34:39.069Z,24.41
2019-05-19T15:37:09.824Z,24.24
2019-05-19T15:39:40.505Z,24.07
2019-05-19T15:42:12.714Z,24.13
2019-05-19T15:44:44.593Z,24.28
2019-05-19T15:47:15.387Z,24.44
2019-05-19T15:49:46.127Z,24.42
2019-05-19T15:52:19.083Z,24.41
2019-05-19T15:55:02.003Z,24.30
2019-05-19T15:57:32.971Z,24.45
2019-05-19T16:00:04.650Z,24.63
2019-05-19T16:02:35.568Z,24.80
2019-05-19T16:05:07.301Z,25.01
2019-05-19T16:07:39.043Z,25.30
2019-05-19T16:10:11.157Z,25.06
2019-05-19T16:12:41.938Z,25.03
2019-05-19T16:15:13.061Z,24.50
2019-05-19T16:17:43.756Z,24.13
2019-05-19T16:20:16.274Z,23.68
2019-05-19T16:22:47.690Z,23.41
2019-05-19T16:25:18.496Z,23.27
2019-05-19T16:27:58.826Z,23.04
2019-05-19T16:30:29.489Z,22.86
2019-05-19T16:33:00.334Z,22.84
2019-05-19T16:35:31.169Z,22.73
2019-05-19T16:38:04.117Z,22.53
2019-05-19T16:40:37.826Z,22.40
2019-05-19T16:43:10.577Z,22.30
2019-05-19T16:45:45.547Z,22.01
2019-05-19T16:48:16.369Z,21.96
2019-05-19T16:50:48.505Z,21.83
2019-05-19T16:53:26.234Z,21.76
2019-05-19T16:55:58.612Z,21.67
2019-05-19T16:58:45.138Z,21.56
2019-05-19T17:01:11.742Z,21.43
2019-05-19T17:03:43.553Z,21.23
2019-05-19T17:06:14.404Z,21.27
2019-05-19T17:08:46.264Z,21.26
2019-05-19T17:11:20.086Z,21.28
2019-05-19T17:13:50.912Z,21.31
2019-05-19T17:16:23.586Z,21.23
2019-05-19T17:18:59.831Z,21.08
2019-05-19T17:21:31.654Z,20.92
2019-05-19T17:24:02.341Z,20.70
2019-05-19T17:26:34.938Z,20.55
2019-05-19T17:29:09.236Z,20.31
2019-05-19T17:31:44.732Z,20.25
2019-05-19T17:34:21.273Z,20.08
2019-05-19T17:36:52.318Z,19.96
2019-05-19T17:39:24.089Z,19.89
2019-05-19T17:41:57.538Z,19.85
2019-05-19T17:44:31.757Z,19.76
2019-05-19T17:47:04.883Z,19.73
2019-05-19T17:49:39.233Z,19.70
2019-05-19T17:52:11.273Z,19.66
2019-05-19T17:54:43.361Z,19.56
2019-05-19T17:57:16.976Z,19.46
2019-05-19T17:59:54.317Z,19.40
2019-05-19T18:02:29.042Z,19.31
2019-05-19T18:05:00.097Z,19.22
2019-05-19T18:07:32.107Z,19.07
2019-05-19T18:10:04.108Z,18.85
2019-05-19T18:12:34.946Z,18.50
2019-05-19T18:15:10.232Z,18.35
2019-05-19T18:17:46.683Z,18.37
2019-05-19T18:20:23.956Z,18.38
2019-05-19T18:22:53.917Z,18.06
2019-05-19T18:25:29.039Z,17.74
2019-05-19T18:28:04.083Z,17.42
2019-05-19T18:30:34.992Z,17.29
2019-05-19T18:33:06.981Z,17.18
2019-05-19T18:35:37.902Z,17.14
2019-05-19T18:38:12.366Z,17.17
2019-05-19T18:40:45.773Z,17.17
2019-05-19T18:43:17.868Z,17.19
2019-05-19T18:45:58.477Z,17.27
2019-05-19T18:48:32.947Z,17.19
2019-05-19T18:51:08.167Z,17.16
2019-05-19T18:53:42.443Z,17.32
2019-05-19T18:56:19.077Z,17.46
2019-05-19T18:58:54.661Z,17.60
2019-05-19T19:01:26.976Z,17.58
2019-05-19T19:04:02.707Z,17.39
2019-05-19T19:06:35.947Z,17.53
2019-05-19T19:09:09.546Z,17.59
2019-05-19T19:11:40.687Z,17.73
2019-05-19T19:14:21.461Z,17.70
2019-05-19T19:16:55.563Z,17.67
2019-05-19T19:19:28.789Z,17.51
2019-05-19T19:22:01.680Z,17.37
2019-05-19T19:24:34.822Z,17.39
2019-05-19T19:27:05.595Z,17.34
2019-05-19T19:29:39.977Z,17.34
2019-05-19T19:32:11.884Z,17.32
2019-05-19T19:34:47.077Z,17.33
2019-05-19T19:37:22.183Z,17.27
2019-05-19T19:39:57.384Z,17.36
2019-05-19T19:42:30.557Z,17.53
2019-05-19T19:45:03.607Z,17.53
2019-05-19T19:47:35.915Z,17.50
2019-05-19T19:50:06.832Z,17.53
2019-05-19T19:52:42.322Z,17.47
2019-05-19T19:55:14.738Z,17.40
2019-05-19T19:57:48.788Z,17.33
2019-05-19T20:00:39.946Z,17.20
2019-05-19T20:03:10.800Z,17.26
2019-05-19T20:05:46.832Z,17.14
2019-05-19T20:08:20.086Z,16.94
2019-05-19T20:10:50.859Z,16.81
2019-05-19T20:13:26.016Z,16.75
2019-05-19T20:15:57.197Z,16.80
2019-05-19T20:18:33.252Z,16.68
2019-05-19T20:21:06.226Z,16.61
2019-05-19T20:23:38.349Z,16.54
2019-05-19T20:26:10.657Z,16.40
2019-05-19T20:28:50.408Z,16.31
2019-05-19T20:31:26.065Z,16.17
2019-05-19T20:33:58.405Z,16.02
2019-05-19T20:36:32.719Z,15.91
2019-05-19T20:39:05.158Z,15.87
2019-05-19T20:41:36.003Z,15.88
2019-05-19T20:44:06.798Z,15.83
2019-05-19T20:46:40.676Z,15.74
2019-05-19T20:49:15.011Z,15.71
2019-05-19T20:51:45.909Z,15.67
2019-05-19T20:54:18.950Z,15.68
2019-05-19T20:56:50.898Z,15.66
2019-05-19T20:59:21.637Z,15.75
2019-05-19T21:01:52.369Z,15.75
2019-05-19T21:04:23.032Z,15.73
2019-05-19T21:06:54.053Z,15.70
2019-05-19T21:09:24.723Z,15.81
2019-05-19T21:11:55.443Z,15.81
2019-05-19T21:14:26.870Z,15.88
2019-05-19T21:16:57.618Z,15.88
2019-05-19T21:19:28.313Z,15.92
2019-05-19T21:21:58.916Z,15.94
2019-05-19T21:24:29.511Z,15.88
2019-05-19T21:27:00.227Z,15.80
2019-05-19T21:29:34.002Z,15.77
2019-05-19T21:32:04.772Z,15.69
2019-05-19T21:34:35.407Z,15.65
2019-05-19T21:37:06.238Z,15.69
2019-05-19T21:39:37.055Z,15.59
2019-05-19T21:42:07.761Z,15.48
2019-05-19T21:44:38.384Z,15.44
2019-05-19T21:47:09.460Z,15.33
2019-05-19T21:49:40.136Z,15.27
2019-05-19T21:52:10.807Z,15.21
2019-05-19T21:54:41.357Z,15.13
2019-05-19T21:57:12.162Z,15.08
2019-05-19T21:59:42.791Z,15.03
2019-05-19T22:02:13.455Z,15.08
2019-05-19T22:04:44.226Z,15.06
2019-05-19T22:07:26.449Z,15.04
2019-05-19T22:09:57.101Z,15.08
2019-05-19T22:12:27.845Z,15.06
2019-05-19T22:14:58.492Z,15.15
2019-05-19T22:17:29.183Z,15.12
2019-05-19T22:19:59.772Z,15.06
2019-05-19T22:22:30.415Z,14.98
2019-05-19T22:25:01.000Z,14.92
2019-05-19T22:27:31.531Z,14.87
2019-05-19T22:30:02.459Z,14.86
2019-05-19T22:32:32.952Z,14.77
2019-05-19T22:35:03.440Z,14.75
2019-05-19T22:37:34.118Z,14.78
2019-05-19T22:40:04.734Z,14.73
2019-05-19T22:42:35.403Z,14.71
2019-05-19T22:45:06.235Z,14.71
2019-05-19T22:47:36.768Z,14.71
2019-05-19T22:50:08.498Z,14.71
2019-05-19T22:52:39.385Z,14.68
2019-05-19T22:55:10.598Z,14.72
2019-05-19T22:57:41.145Z,14.69
2019-05-19T23:00:13.986Z,14.67
2019-05-19T23:02:44.684Z,14.60
2019-05-19T23:05:16.329Z,14.57
2019-05-19T23:07:47.177Z,14.55
2019-05-19T23:10:18.437Z,14.53
2019-05-19T23:12:48.952Z,14.63
2019-05-19T23:15:20.360Z,14.67
2019-05-19T23:17:51.897Z,14.60
2019-05-19T23:20:22.517Z,14.52
2019-05-19T23:22:53.158Z,14.50
2019-05-19T23:25:23.796Z,14.47
2019-05-19T23:27:54.510Z,14.47
2019-05-19T23:30:25.063Z,14.44
2019-05-19T23:32:55.638Z,14.39
2019-05-19T23:35:26.246Z,14.40
2019-05-19T23:37:56.866Z,14.38
2019-05-19T23:40:27.496Z,14.31
2019-05-19T23:42:58.322Z,14.32
2019-05-19T23:45:28.973Z,14.33
2019-05-19T23:47:59.604Z,14.27
2019-05-19T23:50:30.267Z,14.37
2019-05-19T23:53:01.806Z,14.30
2019-05-19T23:55:32.368Z,14.27
2019-05-19T23:58:02.897Z,14.21
